createdAt,value
2023-04-04T00:01:12.224Z,1.37
2023-04-04T00:03:39.840Z,1.30
2023-04-04T00:06:08.462Z,1.47
2023-04-04T00:08:35.792Z,1.60
2023-04-04T00:11:03.551Z,1.30
2023-04-04T00:13:33.397Z,1.47
2023-04-04T00:16:03.061Z,1.40
2023-04-04T00:18:33.503Z,1.30
2023-04-04T00:21:01.507Z,1.50
2023-04-04T00:23:29.245Z,1.33
2023-04-04T00:25:58.262Z,1.20
2023-04-04T00:28:25.757Z,1.30
2023-04-04T00:30:58.263Z,1.20
2023-04-04T00:33:26.431Z,1.23
2023-04-04T00:35:54.640Z,1.40
2023-04-04T00:38:24.299Z,1.40
2023-04-04T00:40:53.130Z,1.20
2023-04-04T00:43:23.956Z,1.50
2023-04-04T00:45:54.386Z,1.37
2023-04-04T00:48:26.276Z,1.30
2023-04-04T00:50:53.759Z,1.30
2023-04-04T00:53:21.084Z,1.50
2023-04-04T00:55:48.612Z,1.17
2023-04-04T00:58:16.316Z,1.43
2023-04-04T01:00:45.319Z,1.30
2023-04-04T01:03:16.302Z,1.63
2023-04-04T01:05:45.441Z,1.37
2023-04-04T01:08:13.268Z,1.27
2023-04-04T01:10:41.502Z,1.30
2023-04-04T01:13:09.951Z,1.10
2023-04-04T01:15:40.432Z,1.47
2023-04-04T01:18:10.795Z,1.23
2023-04-04T01:20:43.288Z,1.50
2023-04-04T01:23:13.033Z,1.43
2023-04-04T01:25:43.943Z,1.50
2023-04-04T01:28:15.740Z,1.57
2023-04-04T01:30:45.530Z,1.30
2023-04-04T01:33:17.615Z,1.20
2023-04-04T01:35:52.132Z,1.50
2023-04-04T01:38:24.263Z,1.50
2023-04-04T01:40:56.701Z,1.30
2023-04-04T01:43:27.642Z,1.33
2023-04-04T01:45:55.611Z,1.40
2023-04-04T01:48:25.377Z,1.00
2023-04-04T01:50:57.294Z,1.60
2023-04-04T01:53:32.585Z,1.00
2023-04-04T01:56:01.703Z,1.47
2023-04-04T01:58:33.646Z,1.17
2023-04-04T02:01:01.428Z,1.10
2023-04-04T02:03:28.968Z,1.27
2023-04-04T02:05:56.363Z,1.10
2023-04-04T02:08:24.864Z,1.70
2023-04-04T02:10:58.865Z,1.30
2023-04-04T02:13:28.862Z,1.30
2023-04-04T02:15:59.240Z,1.13
2023-04-04T02:18:27.022Z,1.10
2023-04-04T02:21:00.325Z,1.23
2023-04-04T02:23:28.393Z,1.17
2023-04-04T02:25:58.102Z,1.00
2023-04-04T02:28:26.364Z,0.97
2023-04-04T02:30:55.891Z,1.30
2023-04-04T02:33:24.041Z,1.30
2023-04-04T02:35:53.545Z,1.30
2023-04-04T02:38:21.199Z,1.27
2023-04-04T02:40:49.697Z,1.17
2023-04-04T02:43:17.040Z,1.27
2023-04-04T02:45:48.689Z,1.30
2023-04-04T02:48:27.617Z,1.43
2023-04-04T02:50:59.276Z,1.53
2023-04-04T02:53:29.316Z,1.37
2023-04-04T02:56:05.156Z,1.23
2023-04-04T02:58:33.207Z,1.10
2023-04-04T03:01:01.070Z,1.27
2023-04-04T03:03:37.925Z,1.47
2023-04-04T03:06:05.974Z,1.30
2023-04-04T03:08:34.939Z,1.63
2023-04-04T03:11:02.818Z,1.03
2023-04-04T03:13:31.267Z,1.40
2023-04-04T03:15:59.873Z,1.60
2023-04-04T03:18:28.241Z,1.43
2023-04-04T03:20:57.032Z,1.60
2023-04-04T03:23:25.889Z,1.40
2023-04-04T03:25:54.987Z,1.40
2023-04-04T03:28:22.660Z,1.43
2023-04-04T03:30:50.092Z,1.40
2023-04-04T03:33:17.565Z,1.50
2023-04-04T03:35:44.949Z,1.87
2023-04-04T03:38:14.805Z,1.20
2023-04-04T03:40:44.125Z,1.43
2023-04-04T03:43:12.903Z,1.40
2023-04-04T03:45:41.980Z,1.60
2023-04-04T03:48:10.612Z,1.17
2023-04-04T03:50:39.649Z,1.40
2023-04-04T03:53:07.243Z,1.40
2023-04-04T03:55:36.186Z,1.50
2023-04-04T03:58:03.516Z,1.90
2023-04-04T04:00:31.684Z,1.63
2023-04-04T04:02:59.495Z,1.30
2023-04-04T04:05:26.904Z,1.80
2023-04-04T04:07:54.491Z,1.13
2023-04-04T04:10:22.040Z,1.50
2023-04-04T04:12:50.723Z,1.50
2023-04-04T04:15:18.152Z,1.23
2023-04-04T04:17:47.195Z,1.90
2023-04-04T04:20:15.237Z,1.33
2023-04-04T04:22:48.096Z,1.30
2023-04-04T04:25:16.611Z,1.30
2023-04-04T04:27:51.609Z,1.37
2023-04-04T04:30:21.959Z,1.70
2023-04-04T04:32:50.319Z,1.17
2023-04-04T04:35:20.506Z,1.63
2023-04-04T04:37:48.622Z,1.37
2023-04-04T04:40:18.092Z,1.30
2023-04-04T04:42:56.788Z,1.33
2023-04-04T04:45:25.134Z,1.53
2023-04-04T04:48:04.389Z,1.80
2023-04-04T04:50:33.983Z,1.37
2023-04-04T04:53:01.753Z,1.50
2023-04-04T04:55:30.081Z,1.60
2023-04-04T04:58:07.576Z,1.53
2023-04-04T05:00:35.329Z,1.43
2023-04-04T05:03:02.800Z,1.67
2023-04-04T05:05:41.065Z,2.03
2023-04-04T05:08:12.374Z,1.57
2023-04-04T05:10:50.681Z,1.43
2023-04-04T05:13:21.035Z,1.80
2023-04-04T05:15:49.063Z,1.77
2023-04-04T05:18:17.932Z,1.60
2023-04-04T05:20:51.511Z,1.40
2023-04-04T05:23:19.901Z,1.50
2023-04-04T05:25:49.354Z,1.23
2023-04-04T05:28:17.303Z,1.57
2023-04-04T05:30:46.415Z,1.60
2023-04-04T05:33:18.017Z,1.40
2023-04-04T05:35:53.727Z,1.57
2023-04-04T05:38:21.316Z,1.20
2023-04-04T05:40:54.329Z,1.60
2023-04-04T05:43:22.997Z,1.90
2023-04-04T05:46:09.862Z,1.23
2023-04-04T05:48:43.315Z,1.50
2023-04-04T05:51:11.913Z,1.80
2023-04-04T05:53:47.621Z,1.57
2023-04-04T05:56:19.552Z,1.50
2023-04-04T05:58:47.452Z,1.40
2023-04-04T06:01:18.476Z,1.10
2023-04-04T06:03:47.256Z,2.50
2023-04-04T06:06:20.312Z,1.60
2023-04-04T06:08:53.360Z,1.67
2023-04-04T06:11:22.391Z,1.80
2023-04-04T06:13:50.787Z,1.20
2023-04-04T06:16:22.210Z,1.67
2023-04-04T06:18:49.834Z,2.50
2023-04-04T06:21:17.444Z,2.23
2023-04-04T06:23:45.396Z,2.27
2023-04-04T06:26:14.789Z,2.93
2023-04-04T06:28:48.122Z,2.70
2023-04-04T06:31:17.459Z,2.73
2023-04-04T06:33:47.599Z,2.53
2023-04-04T06:36:16.124Z,2.40
2023-04-04T06:38:43.500Z,3.00
2023-04-04T06:41:17.227Z,2.33
2023-04-04T06:43:48.554Z,3.03
2023-04-04T06:46:15.999Z,3.17
2023-04-04T06:48:44.878Z,2.80
2023-04-04T06:51:13.861Z,2.67
2023-04-04T06:53:45.459Z,2.90
2023-04-04T06:56:13.030Z,3.23
2023-04-04T06:58:40.393Z,3.20
2023-04-04T07:01:08.166Z,2.93
2023-04-04T07:03:35.619Z,2.53
2023-04-04T07:06:03.281Z,2.83
2023-04-04T07:08:36.219Z,3.07
2023-04-04T07:11:04.198Z,2.57
2023-04-04T07:13:31.822Z,2.60
2023-04-04T07:15:59.244Z,3.07
2023-04-04T07:18:27.189Z,2.70
2023-04-04T07:20:54.766Z,2.40
2023-04-04T07:23:22.099Z,2.53
2023-04-04T07:25:50.816Z,2.43
2023-04-04T07:28:18.139Z,2.23
2023-04-04T07:30:45.666Z,2.23
2023-04-04T07:33:13.080Z,1.27
2023-04-04T07:35:40.509Z,2.23
2023-04-04T07:38:07.980Z,2.73
2023-04-04T07:40:35.573Z,2.40
2023-04-04T07:43:04.235Z,2.47
2023-04-04T07:45:31.791Z,2.40
2023-04-04T07:47:59.471Z,2.33
2023-04-04T07:50:27.215Z,2.17
2023-04-04T07:52:56.133Z,2.13
2023-04-04T07:55:25.219Z,2.47
2023-04-04T07:57:52.854Z,1.70
2023-04-04T08:00:22.598Z,1.60
2023-04-04T08:02:52.931Z,1.67
2023-04-04T08:05:20.413Z,2.03
2023-04-04T08:07:47.814Z,1.60
2023-04-04T08:10:17.384Z,1.80
2023-04-04T08:12:45.150Z,2.00
2023-04-04T08:15:12.744Z,1.90
2023-04-04T08:17:43.194Z,1.40
2023-04-04T08:20:11.588Z,2.00
2023-04-04T08:22:39.608Z,1.20
2023-04-04T08:25:07.271Z,1.00
2023-04-04T08:27:34.945Z,1.07
2023-04-04T08:30:03.931Z,1.33
2023-04-04T08:32:32.018Z,1.20
2023-04-04T08:35:00.829Z,1.10
2023-04-04T08:37:29.338Z,1.00
2023-04-04T08:39:56.820Z,1.17
2023-04-04T08:42:25.701Z,0.87
2023-04-04T08:44:55.010Z,1.00
2023-04-04T08:47:22.989Z,0.90
2023-04-04T08:49:50.889Z,0.90
2023-04-04T08:52:21.610Z,1.00
2023-04-04T08:54:49.082Z,0.77
2023-04-04T08:57:16.469Z,0.73
2023-04-04T08:59:43.896Z,0.87
2023-04-04T09:02:16.421Z,1.10
2023-04-04T09:04:48.826Z,1.10
2023-04-04T09:07:28.811Z,1.00
2023-04-04T09:09:56.593Z,1.10
2023-04-04T09:12:24.776Z,0.90
2023-04-04T09:14:52.697Z,1.00
2023-04-04T09:17:20.184Z,0.77
2023-04-04T09:19:47.519Z,0.80
2023-04-04T09:22:17.200Z,0.67
2023-04-04T09:24:46.544Z,0.87
2023-04-04T09:27:14.244Z,0.70
2023-04-04T09:29:42.589Z,0.80
2023-04-04T09:32:10.544Z,0.70
2023-04-04T09:34:38.819Z,0.70
2023-04-04T09:37:06.480Z,0.90
2023-04-04T09:39:34.825Z,0.60
2023-04-04T09:42:03.969Z,0.67
2023-04-04T09:44:33.921Z,0.80
2023-04-04T09:47:30.463Z,0.60
2023-04-04T09:49:58.800Z,0.77
2023-04-04T09:52:26.369Z,0.53
2023-04-04T09:54:57.947Z,0.80
2023-04-04T09:57:27.746Z,0.53
2023-04-04T09:59:57.243Z,0.90
2023-04-04T10:02:25.001Z,0.63
2023-04-04T10:05:03.364Z,0.60
2023-04-04T10:07:33.481Z,0.63
2023-04-04T10:10:02.321Z,0.77
2023-04-04T10:12:32.889Z,0.40
2023-04-04T10:15:00.368Z,0.73
2023-04-04T10:17:31.010Z,0.73
2023-04-04T10:20:00.514Z,0.80
2023-04-04T10:22:28.590Z,0.70
2023-04-04T10:24:56.286Z,0.70
2023-04-04T10:27:23.970Z,0.90
2023-04-04T10:29:53.101Z,0.70
2023-04-04T10:32:24.250Z,0.60
2023-04-04T10:34:56.605Z,0.90
2023-04-04T10:37:27.227Z,0.60
2023-04-04T10:39:56.795Z,0.70
2023-04-04T10:42:24.403Z,0.60
2023-04-04T10:44:54.078Z,0.90
2023-04-04T10:47:23.078Z,0.70
2023-04-04T10:49:51.616Z,0.60
2023-04-04T10:52:21.140Z,0.50
2023-04-04T10:54:50.802Z,0.60
2023-04-04T10:57:18.293Z,0.77
2023-04-04T11:00:00.092Z,0.97
2023-04-04T11:02:48.322Z,0.80
2023-04-04T11:05:20.535Z,0.83
2023-04-04T11:08:04.234Z,0.60
2023-04-04T11:10:36.067Z,0.70
2023-04-04T11:13:12.818Z,0.70
2023-04-04T11:15:54.236Z,0.70
2023-04-04T11:20:55.152Z,0.60
2023-04-04T11:23:23.337Z,0.53
2023-04-04T11:25:51.662Z,0.67
2023-04-04T11:28:29.999Z,0.40
2023-04-04T11:31:17.384Z,0.70
2023-04-04T11:33:56.528Z,0.70
2023-04-04T11:36:38.946Z,0.50
2023-04-04T11:39:07.920Z,0.57
2023-04-04T11:41:44.919Z,0.73
2023-04-04T11:44:13.345Z,0.87
2023-04-04T11:46:42.183Z,0.77
2023-04-04T11:49:11.445Z,0.73
2023-04-04T11:51:40.720Z,0.70
2023-04-04T11:54:15.377Z,0.50
2023-04-04T11:56:44.947Z,0.63
2023-04-04T11:59:12.447Z,0.83
2023-04-04T12:01:40.409Z,0.70
2023-04-04T12:04:07.944Z,0.73
2023-04-04T12:06:37.204Z,0.67
2023-04-04T12:09:05.458Z,0.80
2023-04-04T12:11:35.236Z,0.80
2023-04-04T12:14:02.878Z,0.63
2023-04-04T12:16:30.535Z,0.63
2023-04-04T12:18:58.290Z,0.80
2023-04-04T12:21:26.997Z,0.70
2023-04-04T12:23:56.515Z,0.80
2023-04-04T12:26:25.085Z,0.43
2023-04-04T12:28:55.228Z,0.80
2023-04-04T12:31:23.278Z,0.93
2023-04-04T12:33:51.760Z,0.80
2023-04-04T12:36:19.207Z,0.83
2023-04-04T12:39:01.378Z,0.60
2023-04-04T12:41:29.366Z,0.60
2023-04-04T12:44:02.192Z,0.73
2023-04-04T12:46:40.011Z,0.80
2023-04-04T12:49:09.388Z,0.60
2023-04-04T12:51:37.470Z,0.40
2023-04-04T12:54:07.348Z,0.90
2023-04-04T12:56:36.069Z,0.50
2023-04-04T12:59:04.592Z,0.83
2023-04-04T13:01:33.035Z,0.70
2023-04-04T13:04:02.901Z,0.90
2023-04-04T13:06:32.222Z,0.70
2023-04-04T13:08:59.936Z,0.60
2023-04-04T13:11:48.925Z,0.90
2023-04-04T13:14:17.673Z,1.00
2023-04-04T13:16:45.578Z,0.80
2023-04-04T13:19:13.114Z,0.77
2023-04-04T13:21:40.807Z,0.70
2023-04-04T13:24:08.325Z,0.80
2023-04-04T13:26:35.961Z,0.97
2023-04-04T13:29:03.652Z,0.60
2023-04-04T13:31:32.584Z,0.53
2023-04-04T13:34:00.213Z,0.60
2023-04-04T13:36:28.344Z,0.70
2023-04-04T13:38:55.809Z,0.90
2023-04-04T13:41:23.398Z,0.60
2023-04-04T13:43:51.117Z,0.83
2023-04-04T13:46:18.727Z,0.70
2023-04-04T13:48:47.717Z,0.70
2023-04-04T13:51:15.072Z,0.60
2023-04-04T13:53:42.447Z,0.80
2023-04-04T13:58:40.998Z,0.73
2023-04-04T14:01:08.909Z,0.70
2023-04-04T14:03:36.579Z,0.70
2023-04-04T14:06:10.401Z,0.77
2023-04-04T14:08:38.428Z,1.03
2023-04-04T14:11:06.245Z,0.57
2023-04-04T14:13:36.261Z,0.80
2023-04-04T14:16:03.757Z,0.80
2023-04-04T14:18:31.186Z,0.50
2023-04-04T14:20:58.539Z,0.60
2023-04-04T14:23:27.280Z,0.57
2023-04-04T14:25:55.103Z,0.90
2023-04-04T14:28:22.532Z,0.80
2023-04-04T14:31:08.990Z,0.77
2023-04-04T14:33:38.801Z,0.63
2023-04-04T14:36:06.449Z,0.60
2023-04-04T14:38:35.326Z,0.80
2023-04-04T14:41:03.342Z,0.70
2023-04-04T14:43:30.812Z,0.50
2023-04-04T14:45:58.410Z,0.60
2023-04-04T14:48:26.265Z,0.63
2023-04-04T14:50:53.836Z,0.50
2023-04-04T14:53:21.739Z,0.53
2023-04-04T14:55:51.098Z,0.63
2023-04-04T14:58:18.408Z,0.67
2023-04-04T15:00:46.619Z,0.70
2023-04-04T15:03:14.163Z,0.90
2023-04-04T15:05:42.191Z,0.70
2023-04-04T15:08:11.718Z,0.53
2023-04-04T15:10:39.873Z,0.60
2023-04-04T15:13:09.175Z,0.43
2023-04-04T15:15:36.731Z,0.57
2023-04-04T15:18:04.192Z,0.70
2023-04-04T15:20:31.561Z,0.50
2023-04-04T15:22:58.990Z,0.43
2023-04-04T15:25:26.772Z,0.60
2023-04-04T15:27:54.359Z,0.40
2023-04-04T15:30:23.477Z,0.73
2023-04-04T15:32:54.236Z,0.70
2023-04-04T15:35:22.062Z,0.67
2023-04-04T15:37:50.126Z,0.50
2023-04-04T15:40:17.977Z,0.67
2023-04-04T15:42:45.579Z,0.70
2023-04-04T15:45:13.515Z,0.30
2023-04-04T15:47:42.627Z,0.60
2023-04-04T15:50:11.523Z,0.40
2023-04-04T15:52:39.106Z,0.50
2023-04-04T15:55:10.934Z,0.53
2023-04-04T15:57:38.359Z,0.60
2023-04-04T16:00:06.602Z,0.50
2023-04-04T16:02:35.105Z,0.50
2023-04-04T16:05:04.377Z,0.93
2023-04-04T16:07:32.310Z,0.43
2023-04-04T16:09:59.707Z,0.40
2023-04-04T16:12:27.325Z,0.50
2023-04-04T16:14:55.322Z,0.30
2023-04-04T16:17:22.635Z,0.60
2023-04-04T16:19:49.987Z,0.30
2023-04-04T16:22:18.670Z,0.40
2023-04-04T16:24:46.189Z,0.50
2023-04-04T16:27:13.691Z,0.60
2023-04-04T16:29:41.471Z,0.60
2023-04-04T16:32:08.791Z,0.50
2023-04-04T16:34:38.756Z,0.70
2023-04-04T16:37:06.555Z,0.83
2023-04-04T16:39:35.573Z,0.60
2023-04-04T16:42:02.953Z,0.40
2023-04-04T16:44:30.712Z,0.60
2023-04-04T16:46:58.162Z,0.60
2023-04-04T16:49:25.603Z,0.57
2023-04-04T16:51:52.985Z,0.60
2023-04-04T16:54:20.321Z,0.60
2023-04-04T16:56:48.999Z,0.57
2023-04-04T16:59:17.316Z,0.43
2023-04-04T17:01:44.894Z,0.80
2023-04-04T17:04:12.440Z,0.50
2023-04-04T17:06:40.076Z,0.60
2023-04-04T17:09:07.720Z,0.50
2023-04-04T17:11:35.399Z,0.70
2023-04-04T17:14:04.272Z,0.30
2023-04-04T17:16:31.763Z,0.50
2023-04-04T17:18:59.403Z,0.50
2023-04-04T17:21:27.240Z,0.60
2023-04-04T17:23:54.662Z,0.60
2023-04-04T17:26:22.490Z,0.67
2023-04-04T17:28:51.004Z,0.70
2023-04-04T17:31:20.364Z,0.63
2023-04-04T17:33:47.721Z,0.80
2023-04-04T17:36:15.366Z,0.47
2023-04-04T17:38:42.754Z,0.50
2023-04-04T17:41:10.164Z,0.70
2023-04-04T17:43:39.118Z,0.50
2023-04-04T17:46:07.579Z,0.50
2023-04-04T17:48:36.762Z,0.47
2023-04-04T17:51:06.185Z,0.47
2023-04-04T17:53:35.340Z,0.60
2023-04-04T17:56:02.945Z,0.40
2023-04-04T17:58:30.363Z,0.67
2023-04-04T18:00:58.073Z,0.70
2023-04-04T18:03:26.354Z,0.30
2023-04-04T18:05:55.352Z,0.40
2023-04-04T18:08:23.072Z,0.60
2023-04-04T18:10:51.157Z,0.50
2023-04-04T18:13:18.641Z,0.63
2023-04-04T18:15:46.080Z,0.70
2023-04-04T18:18:13.530Z,0.50
2023-04-04T18:20:41.083Z,0.60
2023-04-04T18:23:10.773Z,0.70
2023-04-04T18:25:38.112Z,0.50
2023-04-04T18:28:05.852Z,0.40
2023-04-04T18:30:34.949Z,0.87
2023-04-04T18:33:02.617Z,0.57
2023-04-04T18:35:30.211Z,0.90
2023-04-04T18:37:57.549Z,0.70
2023-04-04T18:40:27.054Z,0.93
2023-04-04T18:42:54.642Z,0.40
2023-04-04T18:45:29.988Z,0.60
2023-04-04T18:48:01.586Z,0.50
2023-04-04T18:50:29.124Z,0.70
2023-04-04T18:52:56.810Z,0.70
2023-04-04T18:55:24.381Z,0.70
2023-04-04T18:57:53.033Z,0.60
2023-04-04T19:00:20.589Z,0.77
2023-04-04T19:02:48.072Z,0.73
2023-04-04T19:05:16.322Z,0.77
2023-04-04T19:07:44.763Z,0.70
2023-04-04T19:10:12.208Z,0.70
2023-04-04T19:12:39.588Z,0.60
2023-04-04T19:15:09.550Z,0.60
2023-04-04T19:17:37.157Z,0.90
2023-04-04T19:20:04.939Z,0.90
2023-04-04T19:22:32.634Z,0.80
2023-04-04T19:25:00.238Z,0.87
2023-04-04T19:27:27.568Z,0.70
2023-04-04T19:29:54.936Z,0.63
2023-04-04T19:32:27.168Z,0.80
2023-04-04T19:34:54.572Z,0.77
2023-04-04T19:37:21.901Z,0.80
2023-04-04T19:39:49.492Z,0.83
2023-04-04T19:42:18.742Z,0.80
2023-04-04T19:44:46.303Z,0.80
2023-04-04T19:47:17.313Z,1.00
2023-04-04T19:49:46.650Z,0.73
2023-04-04T19:52:14.586Z,1.00
2023-04-04T19:54:42.878Z,0.90
2023-04-04T19:57:16.353Z,0.80
2023-04-04T19:59:58.838Z,0.80
2023-04-04T20:02:44.821Z,0.97
2023-04-04T20:05:45.134Z,1.00
2023-04-04T20:08:15.093Z,1.80
2023-04-04T20:10:42.782Z,1.30
2023-04-04T20:13:10.759Z,1.20
2023-04-04T20:15:53.362Z,1.00
2023-04-04T20:18:21.301Z,1.07
2023-04-04T20:20:58.319Z,0.90
2023-04-04T20:23:28.237Z,0.90
2023-04-04T20:25:55.768Z,0.93
2023-04-04T20:28:24.651Z,1.13
2023-04-04T20:30:52.171Z,0.70
2023-04-04T20:33:33.774Z,0.87
2023-04-04T20:36:06.851Z,1.03
2023-04-04T20:38:36.074Z,1.40
2023-04-04T20:41:03.689Z,1.20
2023-04-04T20:43:31.752Z,1.10
2023-04-04T20:45:59.200Z,1.03
2023-04-04T20:48:34.477Z,1.20
2023-04-04T20:51:02.128Z,1.17
2023-04-04T20:53:29.624Z,1.10
2023-04-04T20:55:58.604Z,1.20
2023-04-04T20:58:27.454Z,1.10
2023-04-04T21:00:56.745Z,1.10
2023-04-04T21:03:29.826Z,1.17
2023-04-04T21:05:59.457Z,1.23
2023-04-04T21:08:37.944Z,1.83
2023-04-04T21:11:07.071Z,0.90
2023-04-04T21:13:36.090Z,1.57
2023-04-04T21:16:04.560Z,1.90
2023-04-04T21:18:32.579Z,1.80
2023-04-04T21:21:07.755Z,1.77
2023-04-04T21:23:37.795Z,1.40
2023-04-04T21:26:08.056Z,3.40
2023-04-04T21:28:37.234Z,1.83
2023-04-04T21:31:09.927Z,1.67
2023-04-04T21:33:37.988Z,2.77
2023-04-04T21:36:07.291Z,2.00
2023-04-04T21:38:35.296Z,1.70
2023-04-04T21:41:08.084Z,2.53
2023-04-04T21:43:36.968Z,1.63
2023-04-04T21:46:04.631Z,1.50
2023-04-04T21:48:32.175Z,1.90
2023-04-04T21:50:59.640Z,2.50
2023-04-04T21:53:26.979Z,2.00
2023-04-04T21:55:54.545Z,2.23
2023-04-04T21:58:21.894Z,2.47
2023-04-04T22:00:51.010Z,1.30
2023-04-04T22:03:18.669Z,1.23
2023-04-04T22:05:46.238Z,1.40
2023-04-04T22:08:14.833Z,2.17
2023-04-04T22:10:50.146Z,1.90
2023-04-04T22:13:18.681Z,1.50
2023-04-04T22:15:47.225Z,1.40
2023-04-04T22:18:16.401Z,1.70
2023-04-04T22:20:44.612Z,2.23
2023-04-04T22:23:12.993Z,2.03
2023-04-04T22:25:40.941Z,1.17
2023-04-04T22:28:09.036Z,1.40
2023-04-04T22:30:38.793Z,1.60
2023-04-04T22:33:07.014Z,1.10
2023-04-04T22:35:36.171Z,1.07
2023-04-04T22:38:04.087Z,1.07
2023-04-04T22:40:33.440Z,1.20
2023-04-04T22:43:01.544Z,1.30
2023-04-04T22:45:29.931Z,0.83
2023-04-04T22:48:02.046Z,1.00
2023-04-04T22:50:29.559Z,1.83
2023-04-04T22:52:58.632Z,1.73
2023-04-04T22:55:26.714Z,1.50
2023-04-04T22:57:54.272Z,1.20
2023-04-04T23:00:21.648Z,1.00
2023-04-04T23:02:49.807Z,1.07
2023-04-04T23:05:18.522Z,1.20
2023-04-04T23:07:46.248Z,1.00
2023-04-04T23:10:16.000Z,1.50
2023-04-04T23:12:43.331Z,1.10
2023-04-04T23:15:13.357Z,1.30
2023-04-04T23:17:40.949Z,1.27
2023-04-04T23:20:09.374Z,1.30
2023-04-04T23:22:37.572Z,1.30
2023-04-04T23:25:06.670Z,1.37
2023-04-04T23:27:36.386Z,1.20
2023-04-04T23:30:04.800Z,1.47
2023-04-04T23:32:32.674Z,1.23
2023-04-04T23:35:00.464Z,1.60
2023-04-04T23:37:27.852Z,1.47
2023-04-04T23:39:55.307Z,1.43
2023-04-04T23:42:23.161Z,1.10
2023-04-04T23:44:52.457Z,1.20
2023-04-04T23:47:19.823Z,1.27
2023-04-04T23:49:47.409Z,1.33
2023-04-04T23:52:14.894Z,1.10
2023-04-04T23:54:42.289Z,1.40
2023-04-04T23:57:09.665Z,1.30
2023-04-04T23:59:36.985Z,1.50
